createdAt,value
2022-12-29T00:02:08.938Z,5.30
2022-12-29T00:04:43.088Z,5.40
2022-12-29T00:07:17.985Z,5.30
2022-12-29T00:09:51.879Z,5.30
2022-12-29T00:12:27.678Z,5.40
2022-12-29T00:15:16.950Z,5.30
2022-12-29T00:17:51.607Z,5.20
2022-12-29T00:20:41.394Z,5.30
2022-12-29T00:23:31.570Z,5.40
2022-12-29T00:26:25.333Z,5.50
2022-12-29T00:29:17.075Z,5.50
2022-12-29T00:32:08.095Z,5.50
2022-12-29T00:34:57.942Z,5.60
2022-12-29T00:37:44.860Z,5.70
2022-12-29T00:40:36.273Z,5.80
2022-12-29T00:43:26.295Z,6.00
2022-12-29T00:46:02.590Z,6.20
2022-12-29T00:48:53.640Z,6.30
2022-12-29T00:51:27.601Z,6.50
2022-12-29T00:54:01.395Z,6.80
2022-12-29T00:56:35.839Z,6.90
2022-12-29T00:59:11.057Z,7.10
2022-12-29T01:01:47.194Z,7.10
2022-12-29T01:04:21.107Z,7.20
2022-12-29T01:06:55.857Z,7.50
2022-12-29T01:09:45.772Z,7.60
2022-12-29T01:12:39.861Z,7.70
2022-12-29T01:15:17.291Z,7.60
2022-12-29T01:17:54.415Z,7.70
2022-12-29T01:20:30.024Z,8.00
2022-12-29T01:23:04.071Z,8.10
2022-12-29T01:25:38.141Z,8.00
2022-12-29T01:28:12.988Z,7.70
2022-12-29T01:30:46.988Z,8.10
2022-12-29T01:33:22.799Z,8.30
2022-12-29T01:35:56.587Z,8.50
2022-12-29T01:38:33.097Z,9.40
2022-12-29T01:41:08.497Z,9.80
2022-12-29T01:43:51.268Z,9.90
2022-12-29T01:46:31.561Z,9.60
2022-12-29T01:49:19.472Z,9.30
2022-12-29T01:51:56.193Z,9.00
2022-12-29T01:54:34.742Z,8.80
2022-12-29T01:57:15.349Z,8.80
2022-12-29T01:59:54.782Z,9.10
2022-12-29T02:02:33.200Z,9.40
2022-12-29T02:05:15.877Z,9.20
2022-12-29T02:07:55.495Z,9.10
2022-12-29T02:10:31.251Z,9.70
2022-12-29T02:13:05.451Z,10.20
2022-12-29T02:15:50.982Z,10.00
2022-12-29T02:18:33.610Z,10.90
2022-12-29T02:21:48.086Z,11.10
2022-12-29T02:24:56.411Z,11.50
2022-12-29T02:27:58.070Z,11.50
2022-12-29T02:30:55.341Z,11.20
2022-12-29T02:33:42.583Z,12.00
2022-12-29T02:36:27.700Z,11.90
2022-12-29T02:39:10.357Z,11.70
2022-12-29T02:41:51.997Z,11.60
2022-12-29T02:44:36.762Z,11.90
2022-12-29T02:47:21.300Z,11.30
2022-12-29T02:50:02.577Z,11.30
2022-12-29T02:52:41.187Z,11.40
2022-12-29T02:55:15.575Z,12.20
2022-12-29T02:57:52.541Z,12.40
2022-12-29T03:00:26.797Z,12.10
2022-12-29T03:03:21.029Z,11.80
2022-12-29T03:06:11.703Z,11.90
2022-12-29T03:08:54.267Z,11.90
2022-12-29T03:11:49.160Z,12.00
2022-12-29T03:14:48.176Z,11.70
2022-12-29T03:17:30.018Z,11.40
2022-12-29T03:20:12.199Z,12.20
2022-12-29T03:22:50.253Z,11.60
2022-12-29T03:25:33.472Z,11.00
2022-12-29T03:28:14.999Z,10.80
2022-12-29T03:30:53.159Z,11.00
2022-12-29T03:33:30.504Z,11.20
2022-12-29T03:36:14.214Z,10.90
2022-12-29T03:38:52.564Z,10.50
2022-12-29T03:41:29.416Z,10.60
2022-12-29T03:44:04.687Z,10.50
2022-12-29T03:46:39.265Z,10.80
2022-12-29T03:49:13.584Z,10.90
2022-12-29T03:51:51.881Z,11.00
2022-12-29T03:54:26.581Z,11.60
2022-12-29T03:57:00.759Z,11.50
2022-12-29T03:59:53.828Z,11.30
2022-12-29T04:02:30.268Z,10.50
2022-12-29T04:05:06.971Z,10.70
2022-12-29T04:07:46.178Z,10.60
2022-12-29T04:10:23.515Z,10.80
2022-12-29T04:13:03.974Z,10.70
2022-12-29T04:15:40.813Z,10.80
2022-12-29T04:18:18.892Z,11.00
2022-12-29T04:21:08.269Z,10.90
2022-12-29T04:23:50.134Z,10.40
2022-12-29T04:26:27.162Z,10.50
2022-12-29T04:29:23.089Z,10.60
2022-12-29T04:32:17.342Z,10.40
2022-12-29T04:34:58.889Z,10.40
2022-12-29T04:37:36.491Z,10.20
2022-12-29T04:40:16.556Z,10.70
2022-12-29T04:42:53.534Z,10.70
2022-12-29T04:45:31.335Z,10.70
2022-12-29T04:48:19.510Z,10.50
2022-12-29T04:51:09.784Z,10.50
2022-12-29T04:53:48.551Z,10.80
2022-12-29T04:56:27.889Z,10.40
2022-12-29T04:59:04.418Z,10.10
2022-12-29T05:01:41.203Z,10.00
2022-12-29T05:04:16.002Z,10.00
2022-12-29T05:06:50.988Z,9.50
2022-12-29T05:09:26.550Z,9.60
2022-12-29T05:12:02.583Z,9.90
2022-12-29T05:14:37.984Z,9.80
2022-12-29T05:17:12.088Z,9.80
2022-12-29T05:19:46.423Z,10.00
2022-12-29T05:22:20.901Z,10.20
2022-12-29T05:24:55.822Z,10.30
2022-12-29T05:27:32.327Z,10.30
2022-12-29T05:30:16.867Z,10.40
2022-12-29T05:32:52.375Z,10.10
2022-12-29T05:35:26.476Z,10.40
2022-12-29T05:38:01.194Z,10.00
2022-12-29T05:40:35.871Z,9.70
2022-12-29T05:43:16.531Z,9.40
2022-12-29T05:46:12.858Z,9.40
2022-12-29T05:49:12.721Z,9.70
2022-12-29T05:52:04.934Z,9.80
2022-12-29T05:54:40.436Z,9.80
2022-12-29T05:57:19.279Z,9.80
2022-12-29T06:00:02.252Z,10.10
2022-12-29T06:02:37.034Z,10.00
2022-12-29T06:05:12.184Z,9.90
2022-12-29T06:07:49.222Z,10.00
2022-12-29T06:10:25.431Z,9.90
2022-12-29T06:13:04.444Z,9.90
2022-12-29T06:15:41.626Z,9.90
2022-12-29T06:18:19.870Z,10.00
2022-12-29T06:20:55.430Z,9.90
2022-12-29T06:23:30.997Z,9.70
2022-12-29T06:26:06.579Z,9.70
2022-12-29T06:28:43.375Z,9.80
2022-12-29T06:31:20.210Z,9.70
2022-12-29T06:33:56.208Z,9.70
2022-12-29T06:36:30.886Z,9.90
2022-12-29T06:39:05.141Z,10.20
2022-12-29T06:41:39.633Z,10.10
2022-12-29T06:44:37.110Z,10.30
2022-12-29T06:47:18.001Z,10.10
2022-12-29T06:49:53.178Z,9.90
2022-12-29T06:52:28.457Z,9.80
2022-12-29T06:55:03.074Z,10.00
2022-12-29T06:57:38.053Z,10.10
2022-12-29T07:00:16.958Z,10.10
2022-12-29T07:03:00.861Z,9.90
2022-12-29T07:05:36.605Z,9.70
2022-12-29T07:08:11.404Z,9.80
2022-12-29T07:10:46.031Z,9.60
2022-12-29T07:13:22.227Z,9.60
2022-12-29T07:15:57.720Z,9.60
2022-12-29T07:18:35.254Z,9.80
2022-12-29T07:21:10.657Z,9.80
2022-12-29T07:23:45.918Z,9.90
2022-12-29T07:26:22.446Z,9.60
2022-12-29T07:29:00.608Z,9.80
2022-12-29T07:31:36.176Z,9.80
2022-12-29T07:34:15.753Z,9.80
2022-12-29T07:36:51.590Z,9.90
2022-12-29T07:39:27.708Z,10.10
2022-12-29T07:42:05.338Z,10.00
2022-12-29T07:44:50.907Z,10.10
2022-12-29T07:47:56.236Z,10.10
2022-12-29T07:50:33.887Z,10.00
2022-12-29T07:53:09.421Z,9.80
2022-12-29T07:55:46.045Z,9.60
2022-12-29T07:58:21.543Z,9.60
2022-12-29T08:01:00.457Z,9.60
2022-12-29T08:03:34.962Z,9.40
2022-12-29T08:06:14.752Z,9.50
2022-12-29T08:08:49.449Z,9.50
2022-12-29T08:11:24.483Z,9.50
2022-12-29T08:14:00.175Z,9.50
2022-12-29T08:16:36.013Z,9.60
2022-12-29T08:19:12.137Z,9.50
2022-12-29T08:21:50.875Z,9.60
2022-12-29T08:24:26.748Z,9.70
2022-12-29T08:27:11.846Z,9.60
2022-12-29T08:29:50.839Z,9.70
2022-12-29T08:32:26.410Z,9.70
2022-12-29T08:35:01.955Z,9.50
2022-12-29T08:37:39.409Z,9.50
2022-12-29T08:40:16.535Z,9.30
2022-12-29T08:42:51.931Z,9.20
2022-12-29T08:45:27.093Z,9.30
2022-12-29T08:48:01.856Z,9.30
2022-12-29T08:50:40.139Z,9.30
2022-12-29T08:53:16.563Z,9.20
2022-12-29T08:55:53.886Z,9.20
2022-12-29T08:58:29.069Z,9.10
2022-12-29T09:01:05.447Z,9.10
2022-12-29T09:06:40.171Z,9.30
2022-12-29T09:09:17.578Z,9.30
2022-12-29T09:11:52.543Z,9.20
2022-12-29T09:14:26.610Z,9.20
2022-12-29T09:17:17.718Z,9.20
2022-12-29T09:19:53.073Z,9.10
2022-12-29T09:22:27.957Z,9.20
2022-12-29T09:25:04.239Z,9.30
2022-12-29T09:27:39.048Z,9.30
2022-12-29T09:30:17.165Z,9.20
2022-12-29T09:32:55.115Z,9.20
2022-12-29T09:35:29.775Z,9.30
2022-12-29T09:38:04.284Z,9.20
2022-12-29T09:40:41.877Z,9.00
2022-12-29T09:43:38.242Z,9.10
2022-12-29T09:46:24.379Z,9.20
2022-12-29T09:49:05.851Z,9.10
2022-12-29T09:51:43.210Z,9.10
2022-12-29T09:54:35.483Z,9.10
2022-12-29T09:57:24.707Z,8.90
2022-12-29T10:00:07.001Z,8.90
2022-12-29T10:02:49.770Z,8.80
2022-12-29T10:05:40.779Z,8.80
2022-12-29T10:08:26.758Z,8.90
2022-12-29T10:11:04.784Z,8.90
2022-12-29T10:13:53.189Z,8.80
2022-12-29T10:16:36.209Z,8.90
2022-12-29T10:19:33.450Z,8.80
2022-12-29T10:22:24.588Z,8.70
2022-12-29T10:25:00.991Z,8.70
2022-12-29T10:27:42.730Z,8.70
2022-12-29T10:30:21.498Z,8.70
2022-12-29T10:32:58.926Z,8.70
2022-12-29T10:35:41.707Z,8.70
2022-12-29T10:38:26.290Z,8.70
2022-12-29T10:41:05.864Z,8.70
2022-12-29T10:43:49.092Z,8.60
2022-12-29T10:46:28.609Z,8.60
2022-12-29T10:49:08.013Z,8.60
2022-12-29T10:51:47.358Z,8.60
2022-12-29T10:54:29.238Z,8.70
2022-12-29T10:57:08.962Z,8.70
2022-12-29T10:59:45.246Z,8.60
2022-12-29T11:02:43.673Z,8.60
2022-12-29T11:05:27.091Z,8.60
2022-12-29T11:08:07.634Z,8.60
2022-12-29T11:10:45.478Z,8.60
2022-12-29T11:13:23.639Z,8.50
2022-12-29T11:15:59.761Z,8.40
2022-12-29T11:18:42.402Z,8.40
2022-12-29T11:21:38.570Z,8.40
2022-12-29T11:24:27.010Z,8.40
2022-12-29T11:27:15.223Z,8.40
2022-12-29T11:29:52.279Z,8.30
2022-12-29T11:32:30.215Z,8.30
2022-12-29T11:35:10.063Z,8.30
2022-12-29T11:37:46.987Z,8.30
2022-12-29T11:40:25.713Z,8.40
2022-12-29T11:43:05.282Z,8.30
2022-12-29T11:45:42.246Z,8.30
2022-12-29T11:48:23.583Z,8.40
2022-12-29T11:51:04.569Z,8.40
2022-12-29T11:53:49.872Z,8.40
2022-12-29T11:56:28.348Z,8.40
2022-12-29T11:59:04.110Z,8.40
2022-12-29T12:01:45.231Z,8.30
2022-12-29T12:04:24.655Z,8.40
2022-12-29T12:07:08.686Z,8.40
2022-12-29T12:09:51.997Z,8.40
2022-12-29T12:12:34.508Z,8.40
2022-12-29T12:15:11.983Z,8.40
2022-12-29T12:18:02.384Z,8.40
2022-12-29T12:20:51.889Z,8.40
2022-12-29T12:23:48.441Z,8.50
2022-12-29T12:26:30.443Z,8.40
2022-12-29T12:29:14.070Z,8.40
2022-12-29T12:31:54.555Z,8.30
2022-12-29T12:34:36.031Z,8.30
2022-12-29T12:37:29.288Z,8.30
2022-12-29T12:40:32.663Z,8.40
2022-12-29T12:43:26.609Z,8.30
2022-12-29T12:46:13.794Z,8.20
2022-12-29T12:49:18.440Z,8.20
2022-12-29T12:52:05.305Z,8.10
2022-12-29T12:55:01.933Z,8.10
2022-12-29T12:57:52.072Z,8.10
2022-12-29T13:00:28.900Z,8.10
2022-12-29T13:03:16.671Z,8.10
2022-12-29T13:06:13.902Z,8.10
2022-12-29T13:09:06.924Z,8.10
2022-12-29T13:11:54.874Z,8.10
2022-12-29T13:14:53.111Z,8.00
2022-12-29T13:17:36.767Z,8.00
2022-12-29T13:20:26.566Z,8.00
2022-12-29T13:23:10.808Z,8.00
2022-12-29T13:25:52.420Z,8.10
2022-12-29T13:28:38.383Z,8.20
2022-12-29T13:31:21.806Z,8.10
2022-12-29T13:34:07.248Z,8.20
2022-12-29T13:36:48.355Z,8.20
2022-12-29T13:39:28.707Z,8.20
2022-12-29T13:42:09.261Z,8.20
2022-12-29T13:44:53.780Z,8.20
2022-12-29T13:47:37.566Z,8.20
2022-12-29T13:50:23.137Z,8.20
2022-12-29T13:53:10.517Z,8.20
2022-12-29T13:55:53.807Z,8.20
2022-12-29T13:58:38.687Z,8.20
2022-12-29T14:01:22.138Z,8.20
2022-12-29T14:04:02.629Z,8.20
2022-12-29T14:06:43.230Z,8.10
2022-12-29T14:09:44.716Z,8.10
2022-12-29T14:12:35.306Z,8.10
2022-12-29T14:15:26.087Z,8.00
2022-12-29T14:18:20.891Z,7.90
2022-12-29T14:21:03.112Z,7.90
2022-12-29T14:23:47.167Z,7.90
2022-12-29T14:26:40.150Z,7.80
2022-12-29T14:29:41.349Z,7.80
2022-12-29T14:32:44.772Z,7.80
2022-12-29T14:35:48.840Z,7.80
2022-12-29T14:38:36.189Z,7.80
2022-12-29T14:41:36.779Z,7.80
2022-12-29T14:44:26.502Z,7.80
2022-12-29T14:47:12.014Z,7.80
2022-12-29T14:49:50.980Z,7.80
2022-12-29T14:52:29.893Z,7.90
2022-12-29T14:55:44.557Z,7.80
2022-12-29T14:58:24.528Z,7.90
2022-12-29T15:01:05.212Z,7.80
2022-12-29T15:03:48.266Z,7.80
2022-12-29T15:06:25.671Z,7.80
2022-12-29T15:09:09.699Z,7.80
2022-12-29T15:11:58.634Z,7.80
2022-12-29T15:14:41.580Z,7.80
2022-12-29T15:17:33.338Z,7.90
2022-12-29T15:20:27.546Z,7.80
2022-12-29T15:23:09.331Z,7.80
2022-12-29T15:25:56.253Z,7.70
2022-12-29T15:28:42.615Z,7.60
2022-12-29T15:31:26.326Z,7.60
2022-12-29T15:34:17.011Z,7.70
2022-12-29T15:36:55.833Z,7.60
2022-12-29T15:39:35.760Z,7.60
2022-12-29T15:42:20.641Z,7.70
2022-12-29T15:45:10.188Z,7.70
2022-12-29T15:47:51.745Z,7.70
2022-12-29T15:50:32.762Z,7.70
2022-12-29T15:53:09.046Z,7.80
2022-12-29T15:55:46.709Z,7.80
2022-12-29T15:58:30.562Z,7.80
2022-12-29T16:01:08.891Z,7.80
2022-12-29T16:03:44.036Z,7.90
2022-12-29T16:06:36.840Z,7.90
2022-12-29T16:09:11.939Z,7.80
2022-12-29T16:11:50.060Z,7.80
2022-12-29T16:14:27.690Z,7.80
2022-12-29T16:17:07.682Z,7.70
2022-12-29T16:19:45.063Z,7.70
2022-12-29T16:22:26.624Z,7.70
2022-12-29T16:25:05.320Z,7.80
2022-12-29T16:27:44.329Z,7.80
2022-12-29T16:30:33.128Z,7.70
2022-12-29T16:33:12.147Z,7.80
2022-12-29T16:35:55.222Z,7.80
2022-12-29T16:38:36.033Z,7.80
2022-12-29T16:41:10.039Z,7.70
2022-12-29T16:43:45.911Z,7.80
2022-12-29T16:46:31.997Z,7.60
2022-12-29T16:49:08.083Z,7.60
2022-12-29T16:51:43.301Z,7.60
2022-12-29T16:54:26.405Z,7.60
2022-12-29T16:57:00.907Z,7.50
2022-12-29T16:59:38.926Z,7.50
2022-12-29T17:02:18.151Z,7.50
2022-12-29T17:04:55.365Z,7.50
2022-12-29T17:07:30.324Z,7.60
2022-12-29T17:10:03.985Z,7.60
2022-12-29T17:12:39.910Z,7.60
2022-12-29T17:15:20.032Z,7.50
2022-12-29T17:17:54.761Z,7.40
2022-12-29T17:20:32.510Z,7.30
2022-12-29T17:23:06.954Z,7.30
2022-12-29T17:25:42.496Z,7.30
2022-12-29T17:28:24.088Z,7.30
2022-12-29T17:31:00.054Z,7.30
2022-12-29T17:33:36.051Z,7.20
2022-12-29T17:36:12.392Z,7.20
2022-12-29T17:38:46.850Z,7.10
2022-12-29T17:41:20.809Z,7.10
2022-12-29T17:43:54.685Z,7.20
2022-12-29T17:46:30.692Z,7.20
2022-12-29T17:49:05.545Z,7.30
2022-12-29T17:51:41.712Z,7.30
2022-12-29T17:54:26.595Z,7.10
2022-12-29T17:57:00.597Z,7.00
2022-12-29T17:59:34.802Z,7.10
2022-12-29T18:02:14.650Z,7.00
2022-12-29T18:04:48.923Z,7.00
2022-12-29T18:07:25.077Z,7.10
2022-12-29T18:09:58.899Z,7.10
2022-12-29T18:12:35.676Z,7.10
2022-12-29T18:15:10.085Z,7.20
2022-12-29T18:17:43.840Z,7.20
2022-12-29T18:20:18.609Z,7.10
2022-12-29T18:22:54.763Z,7.00
2022-12-29T18:25:36.506Z,7.10
2022-12-29T18:28:10.625Z,7.10
2022-12-29T18:30:44.750Z,7.10
2022-12-29T18:33:23.300Z,7.00
2022-12-29T18:36:01.753Z,7.00
2022-12-29T18:38:37.693Z,7.00
2022-12-29T18:41:17.192Z,7.10
2022-12-29T18:43:51.476Z,7.10
2022-12-29T18:46:25.641Z,7.00
2022-12-29T18:48:59.810Z,7.00
2022-12-29T18:51:33.537Z,7.00
2022-12-29T18:54:09.427Z,7.00
2022-12-29T18:56:43.286Z,7.10
2022-12-29T18:59:17.343Z,7.10
2022-12-29T19:01:51.548Z,7.20
2022-12-29T19:04:25.907Z,7.20
2022-12-29T19:07:00.839Z,7.20
2022-12-29T19:09:36.563Z,7.20
2022-12-29T19:12:10.716Z,7.10
2022-12-29T19:14:44.853Z,7.20
2022-12-29T19:17:19.777Z,7.20
2022-12-29T19:19:55.160Z,7.20
2022-12-29T19:22:29.449Z,7.20
2022-12-29T19:25:05.215Z,7.20
2022-12-29T19:27:39.337Z,7.20
2022-12-29T19:30:15.575Z,7.10
2022-12-29T19:32:51.866Z,7.20
2022-12-29T19:35:26.996Z,7.20
2022-12-29T19:38:01.122Z,7.20
2022-12-29T19:40:37.128Z,7.20
2022-12-29T19:43:11.182Z,7.00
2022-12-29T19:45:46.417Z,7.00
2022-12-29T19:48:21.853Z,7.20
2022-12-29T19:50:55.604Z,7.10
2022-12-29T19:53:29.437Z,7.10
2022-12-29T19:56:08.314Z,7.10
2022-12-29T19:58:47.489Z,7.10
2022-12-29T20:01:23.525Z,7.10
2022-12-29T20:03:58.231Z,7.10
2022-12-29T20:06:31.929Z,7.10
2022-12-29T20:09:08.081Z,7.10
2022-12-29T20:11:43.999Z,7.10
2022-12-29T20:14:18.541Z,7.00
2022-12-29T20:17:10.092Z,7.00
2022-12-29T20:19:46.211Z,6.90
2022-12-29T20:22:20.355Z,6.90
2022-12-29T20:25:18.313Z,7.00
2022-12-29T20:27:50.446Z,6.90
2022-12-29T20:30:26.491Z,6.60
2022-12-29T20:33:06.086Z,6.80
2022-12-29T20:35:41.795Z,6.90
2022-12-29T20:38:15.764Z,6.90
2022-12-29T20:40:49.921Z,6.80
2022-12-29T20:43:25.725Z,6.70
2022-12-29T20:45:59.895Z,6.80
2022-12-29T20:48:34.848Z,6.70
2022-12-29T20:51:09.543Z,6.70
2022-12-29T20:53:43.769Z,6.70
2022-12-29T20:56:21.403Z,6.70
2022-12-29T21:01:53.380Z,6.80
2022-12-29T21:04:27.568Z,6.80
2022-12-29T21:07:01.338Z,6.80
2022-12-29T21:09:35.212Z,6.80
2022-12-29T21:12:10.221Z,6.80
2022-12-29T21:14:46.190Z,6.80
2022-12-29T21:17:20.244Z,6.80
2022-12-29T21:19:54.092Z,6.70
2022-12-29T21:22:27.879Z,6.70
2022-12-29T21:25:01.750Z,6.70
2022-12-29T21:27:37.053Z,6.60
2022-12-29T21:30:14.237Z,6.70
2022-12-29T21:32:48.383Z,6.60
2022-12-29T21:35:22.448Z,6.80
2022-12-29T21:37:56.456Z,6.90
2022-12-29T21:40:30.208Z,6.90
2022-12-29T21:43:04.763Z,6.80
2022-12-29T21:45:39.037Z,6.70
2022-12-29T21:48:25.544Z,6.70
2022-12-29T21:51:18.085Z,6.70
2022-12-29T21:53:52.303Z,6.80
2022-12-29T21:56:26.233Z,6.80
2022-12-29T21:59:15.815Z,6.70
2022-12-29T22:02:07.308Z,6.70
2022-12-29T22:04:57.344Z,6.70
2022-12-29T22:07:47.449Z,6.60
2022-12-29T22:10:37.395Z,6.80
2022-12-29T22:13:11.286Z,6.90
2022-12-29T22:15:45.413Z,6.80
2022-12-29T22:18:21.884Z,6.80
2022-12-29T22:20:56.024Z,6.70
2022-12-29T22:23:30.074Z,6.70
2022-12-29T22:26:08.522Z,6.80
2022-12-29T22:28:42.991Z,6.90
2022-12-29T22:31:28.998Z,7.00
2022-12-29T22:34:06.500Z,6.90
2022-12-29T22:36:40.520Z,6.90
2022-12-29T22:39:14.357Z,6.90
2022-12-29T22:41:48.456Z,6.90
2022-12-29T22:44:22.318Z,7.00
2022-12-29T22:46:56.444Z,7.00
2022-12-29T22:49:32.597Z,6.90
2022-12-29T22:52:06.459Z,7.00
2022-12-29T22:54:40.424Z,7.10
2022-12-29T22:57:14.199Z,7.10
2022-12-29T22:59:48.202Z,7.10
2022-12-29T23:02:22.130Z,7.10
2022-12-29T23:05:05.747Z,7.10
2022-12-29T23:07:40.266Z,7.20
2022-12-29T23:10:14.551Z,7.00
2022-12-29T23:12:48.762Z,6.90
2022-12-29T23:15:22.613Z,7.10
2022-12-29T23:17:56.666Z,6.80
2022-12-29T23:20:32.579Z,6.80
2022-12-29T23:23:06.645Z,6.80
2022-12-29T23:25:41.320Z,6.80
2022-12-29T23:28:15.006Z,7.00
2022-12-29T23:30:49.528Z,6.90
2022-12-29T23:33:23.789Z,6.60
2022-12-29T23:35:59.883Z,6.60
2022-12-29T23:38:34.226Z,6.60
2022-12-29T23:41:08.026Z,6.80
2022-12-29T23:43:42.161Z,6.70
2022-12-29T23:46:17.585Z,6.70
2022-12-29T23:48:51.320Z,6.70
2022-12-29T23:51:27.684Z,6.70
2022-12-29T23:54:01.841Z,6.70
2022-12-29T23:56:35.763Z,6.60
2022-12-29T23:59:10.404Z,6.50
